createdAt,value
2023-09-16T00:00:47.647Z,26.62
2023-09-16T00:03:15.675Z,29.25
2023-09-16T00:05:44.203Z,28.62
2023-09-16T00:08:11.591Z,28.02
2023-09-16T00:10:40.522Z,28.15
2023-09-16T00:13:08.867Z,35.22
2023-09-16T00:15:36.224Z,26.37
2023-09-16T00:18:04.268Z,27.92
2023-09-16T00:20:31.728Z,23.95
2023-09-16T00:22:59.213Z,24.12
2023-09-16T00:25:27.609Z,26.83
2023-09-16T00:27:56.029Z,30.02
2023-09-16T00:30:23.599Z,25.33
2023-09-16T00:32:51.312Z,23.37
2023-09-16T00:35:20.948Z,23.20
2023-09-16T00:37:48.383Z,24.67
2023-09-16T00:40:16.279Z,22.67
2023-09-16T00:42:43.686Z,27.87
2023-09-16T00:45:12.005Z,22.05
2023-09-16T00:50:14.250Z,23.05
2023-09-16T00:52:55.076Z,27.85
2023-09-16T00:55:23.420Z,25.08
2023-09-16T00:57:53.970Z,27.55
2023-09-16T01:00:25.104Z,24.15
2023-09-16T01:02:52.776Z,27.10
2023-09-16T01:05:20.521Z,24.58
2023-09-16T01:07:48.132Z,23.73
2023-09-16T01:10:16.437Z,23.33
2023-09-16T01:12:44.240Z,23.67
2023-09-16T01:15:14.413Z,23.00
2023-09-16T01:17:58.501Z,21.58
2023-09-16T01:20:26.786Z,27.83
2023-09-16T01:22:54.828Z,25.12
2023-09-16T01:25:26.468Z,29.17
2023-09-16T01:27:54.178Z,22.85
2023-09-16T01:30:22.223Z,23.10
2023-09-16T01:33:06.363Z,28.50
2023-09-16T01:35:39.772Z,24.02
2023-09-16T01:38:11.917Z,29.73
2023-09-16T01:40:40.902Z,30.30
2023-09-16T01:43:09.768Z,30.98
2023-09-16T01:45:44.644Z,29.75
2023-09-16T01:48:12.790Z,24.80
2023-09-16T01:50:40.039Z,26.52
2023-09-16T01:53:08.699Z,26.50
2023-09-16T01:55:39.201Z,24.90
2023-09-16T01:58:09.669Z,25.48
2023-09-16T02:00:37.724Z,23.90
2023-09-16T02:03:05.658Z,24.17
2023-09-16T02:05:33.243Z,29.63
2023-09-16T02:08:01.255Z,27.95
2023-09-16T02:10:29.659Z,26.98
2023-09-16T02:12:57.080Z,26.87
2023-09-16T02:15:25.033Z,25.65
2023-09-16T02:17:52.793Z,27.92
2023-09-16T02:20:20.233Z,24.50
2023-09-16T02:22:48.315Z,27.25
2023-09-16T02:27:44.276Z,24.98
2023-09-16T02:30:13.426Z,31.03
2023-09-16T02:32:40.834Z,25.27
2023-09-16T02:35:08.320Z,27.33
2023-09-16T02:37:36.026Z,24.95
2023-09-16T02:40:03.973Z,26.30
2023-09-16T02:42:31.765Z,27.10
2023-09-16T02:45:00.017Z,26.50
2023-09-16T02:47:29.323Z,23.58
2023-09-16T02:49:57.787Z,21.95
2023-09-16T02:52:25.989Z,23.17
2023-09-16T02:54:53.348Z,27.05
2023-09-16T02:57:20.744Z,29.85
2023-09-16T02:59:49.051Z,24.25
2023-09-16T03:02:17.351Z,26.85
2023-09-16T03:04:44.886Z,23.10
2023-09-16T03:07:12.556Z,25.73
2023-09-16T03:09:40.320Z,27.00
2023-09-16T03:12:12.038Z,22.23
2023-09-16T03:14:40.080Z,27.17
2023-09-16T03:17:07.577Z,22.30
2023-09-16T03:19:35.996Z,25.67
2023-09-16T03:22:03.865Z,27.42
2023-09-16T03:24:31.647Z,26.37
2023-09-16T03:26:59.072Z,21.87
2023-09-16T03:29:27.433Z,24.33
2023-09-16T03:31:54.982Z,21.00
2023-09-16T03:34:22.421Z,23.42
2023-09-16T03:36:50.424Z,26.73
2023-09-16T03:39:18.377Z,25.75
2023-09-16T03:41:45.913Z,23.38
2023-09-16T03:44:15.672Z,33.17
2023-09-16T03:46:43.762Z,23.92
2023-09-16T03:49:11.427Z,27.83
2023-09-16T03:51:40.334Z,22.60
2023-09-16T03:54:08.116Z,21.75
2023-09-16T03:56:35.886Z,24.87
2023-09-16T03:59:03.620Z,24.52
2023-09-16T04:01:31.447Z,24.45
2023-09-16T04:03:59.841Z,26.58
2023-09-16T04:06:27.903Z,28.02
2023-09-16T04:08:56.118Z,29.42
2023-09-16T04:11:23.972Z,26.02
2023-09-16T04:13:51.643Z,26.27
2023-09-16T04:16:19.891Z,22.98
2023-09-16T04:18:47.977Z,24.12
2023-09-16T04:21:15.445Z,26.75
2023-09-16T04:23:42.843Z,24.63
2023-09-16T04:26:15.292Z,23.40
2023-09-16T04:28:43.081Z,23.52
2023-09-16T04:31:11.021Z,25.85
2023-09-16T04:33:39.497Z,22.67
2023-09-16T04:36:07.313Z,24.35
2023-09-16T04:38:35.060Z,24.05
2023-09-16T04:41:02.522Z,25.30
2023-09-16T04:43:31.182Z,24.75
2023-09-16T04:45:59.560Z,26.40
2023-09-16T04:48:28.998Z,24.55
2023-09-16T04:50:56.405Z,23.45
2023-09-16T04:53:24.058Z,21.15
2023-09-16T04:55:59.981Z,23.67
2023-09-16T04:58:27.966Z,25.10
2023-09-16T05:00:55.506Z,21.95
2023-09-16T05:03:23.013Z,26.27
2023-09-16T05:05:53.126Z,23.62
2023-09-16T05:08:21.654Z,23.08
2023-09-16T05:10:59.010Z,23.17
2023-09-16T05:18:35.614Z,22.60
2023-09-16T05:23:35.182Z,27.02
2023-09-16T05:26:06.012Z,33.95
2023-09-16T05:28:33.786Z,22.83
2023-09-16T05:31:02.415Z,23.85
2023-09-16T05:33:31.285Z,24.02
2023-09-16T05:35:58.660Z,22.83
2023-09-16T05:38:26.280Z,22.75
2023-09-16T05:40:54.265Z,26.83
2023-09-16T05:43:23.321Z,24.90
2023-09-16T05:45:52.541Z,26.30
2023-09-16T05:48:20.547Z,23.48
2023-09-16T05:51:01.419Z,24.25
2023-09-16T05:53:32.317Z,27.45
2023-09-16T05:56:03.690Z,23.42
2023-09-16T05:58:32.353Z,26.52
2023-09-16T06:00:59.865Z,22.70
2023-09-16T06:03:28.633Z,23.92
2023-09-16T06:06:00.643Z,23.55
2023-09-16T06:08:28.430Z,22.02
2023-09-16T06:10:57.129Z,24.85
2023-09-16T06:13:25.213Z,23.85
2023-09-16T06:15:54.019Z,23.33
2023-09-16T06:18:23.617Z,18.90
2023-09-16T06:20:51.040Z,25.73
2023-09-16T06:23:19.348Z,23.75
2023-09-16T06:25:48.063Z,24.08
2023-09-16T06:28:15.811Z,21.48
2023-09-16T06:30:43.646Z,21.75
2023-09-16T06:33:11.797Z,20.98
2023-09-16T06:35:39.185Z,23.75
2023-09-16T06:38:06.878Z,28.27
2023-09-16T06:40:34.308Z,24.87
2023-09-16T06:43:02.377Z,25.60
2023-09-16T06:45:30.423Z,28.83
2023-09-16T06:47:58.422Z,28.00
2023-09-16T06:50:25.909Z,27.13
2023-09-16T06:52:53.707Z,25.65
2023-09-16T06:55:21.077Z,26.42
2023-09-16T06:57:48.832Z,28.75
2023-09-16T07:00:17.082Z,27.60
2023-09-16T07:02:44.498Z,25.60
2023-09-16T07:05:12.082Z,31.62
2023-09-16T07:07:40.076Z,21.60
2023-09-16T07:10:08.042Z,18.27
2023-09-16T07:12:35.424Z,22.00
2023-09-16T07:15:03.304Z,20.77
2023-09-16T07:17:33.663Z,17.08
2023-09-16T07:20:01.296Z,16.87
2023-09-16T07:22:29.305Z,19.92
2023-09-16T07:24:57.743Z,18.85
2023-09-16T07:27:25.264Z,16.10
2023-09-16T07:29:53.063Z,15.70
2023-09-16T07:32:20.520Z,15.80
2023-09-16T07:34:47.863Z,16.65
2023-09-16T07:37:15.868Z,19.17
2023-09-16T07:39:46.118Z,10.90
2023-09-16T07:42:16.340Z,12.85
2023-09-16T07:44:44.194Z,14.60
2023-09-16T07:47:11.807Z,12.27
2023-09-16T07:49:39.282Z,16.62
2023-09-16T07:52:07.158Z,20.75
2023-09-16T07:54:34.705Z,14.75
2023-09-16T07:57:02.247Z,14.20
2023-09-16T07:59:30.036Z,18.80
2023-09-16T08:01:57.580Z,16.37
2023-09-16T08:04:25.640Z,12.63
2023-09-16T08:06:54.024Z,16.15
2023-09-16T08:09:22.098Z,14.38
2023-09-16T08:11:50.020Z,13.35
2023-09-16T08:14:17.455Z,13.68
2023-09-16T08:16:45.052Z,12.57
2023-09-16T08:19:13.682Z,13.43
2023-09-16T08:21:41.190Z,17.48
2023-09-16T08:24:08.518Z,15.13
2023-09-16T08:26:36.560Z,14.35
2023-09-16T08:29:03.974Z,12.90
2023-09-16T08:31:31.535Z,11.15
2023-09-16T08:34:03.238Z,13.53
2023-09-16T08:36:30.968Z,13.80
2023-09-16T08:38:58.804Z,17.92
2023-09-16T08:41:50.106Z,14.00
2023-09-16T08:44:22.661Z,17.35
2023-09-16T08:47:00.723Z,16.85
2023-09-16T08:49:31.874Z,15.75
2023-09-16T08:52:01.631Z,16.27
2023-09-16T08:54:34.017Z,12.30
2023-09-16T08:57:04.274Z,16.77
2023-09-16T08:59:32.422Z,14.20
2023-09-16T09:01:59.893Z,18.37
2023-09-16T09:04:28.731Z,14.02
2023-09-16T09:06:57.909Z,15.10
2023-09-16T09:09:25.309Z,11.98
2023-09-16T09:11:56.476Z,11.23
2023-09-16T09:14:25.214Z,16.48
2023-09-16T09:19:23.595Z,11.40
2023-09-16T09:21:53.084Z,9.80
2023-09-16T09:24:20.506Z,7.60
2023-09-16T09:26:47.856Z,7.87
2023-09-16T09:29:15.630Z,10.07
2023-09-16T09:31:45.642Z,7.22
2023-09-16T09:34:18.095Z,8.85
2023-09-16T09:36:49.232Z,9.57
2023-09-16T09:39:16.714Z,12.02
2023-09-16T09:41:46.969Z,7.65
2023-09-16T09:44:15.561Z,6.47
2023-09-16T09:46:43.406Z,6.68
2023-09-16T09:49:14.048Z,8.07
2023-09-16T09:51:44.490Z,6.75
2023-09-16T09:54:12.132Z,9.02
2023-09-16T09:56:39.940Z,7.70
2023-09-16T09:59:07.875Z,9.65
2023-09-16T10:01:36.485Z,8.15
2023-09-16T10:04:04.757Z,11.12
2023-09-16T10:06:33.548Z,7.97
2023-09-16T10:11:29.853Z,9.07
2023-09-16T10:16:25.003Z,8.98
2023-09-16T10:18:53.507Z,7.10
2023-09-16T10:21:21.073Z,9.75
2023-09-16T10:23:48.994Z,7.30
2023-09-16T10:26:17.773Z,8.52
2023-09-16T10:28:48.433Z,8.23
2023-09-16T10:31:17.946Z,9.75
2023-09-16T10:33:47.210Z,9.18
2023-09-16T10:36:16.254Z,8.27
2023-09-16T10:38:44.482Z,15.98
2023-09-16T10:43:40.488Z,8.88
2023-09-16T10:46:08.741Z,9.93
2023-09-16T10:48:36.745Z,7.30
2023-09-16T10:51:09.823Z,12.43
2023-09-16T10:53:42.113Z,9.70
2023-09-16T10:56:17.889Z,7.57
2023-09-16T10:58:51.818Z,11.32
2023-09-16T11:01:38.294Z,11.73
2023-09-16T11:04:16.075Z,10.20
2023-09-16T11:06:44.528Z,9.65
2023-09-16T11:09:12.761Z,12.90
2023-09-16T11:11:42.483Z,8.60
2023-09-16T11:14:11.701Z,9.98
2023-09-16T11:16:46.495Z,8.00
2023-09-16T11:19:21.352Z,13.82
2023-09-16T11:21:49.700Z,9.45
2023-09-16T11:24:17.590Z,11.38
2023-09-16T11:26:49.635Z,7.18
2023-09-16T11:29:23.361Z,11.82
2023-09-16T11:31:51.129Z,10.52
2023-09-16T11:34:21.606Z,12.15
2023-09-16T11:36:57.443Z,9.43
2023-09-16T11:39:41.826Z,8.35
2023-09-16T11:42:09.943Z,11.80
2023-09-16T11:44:38.482Z,10.23
2023-09-16T11:47:06.586Z,10.20
2023-09-16T11:49:35.300Z,8.82
2023-09-16T11:52:03.944Z,7.43
2023-09-16T11:54:31.472Z,5.95
2023-09-16T11:56:59.517Z,8.13
2023-09-16T11:59:28.582Z,8.63
2023-09-16T12:01:56.554Z,12.32
2023-09-16T12:04:24.838Z,10.20
2023-09-16T12:06:53.351Z,10.60
2023-09-16T12:11:52.732Z,9.20
2023-09-16T12:14:20.552Z,14.32
2023-09-16T12:16:48.543Z,12.13
2023-09-16T12:19:16.488Z,10.43
2023-09-16T12:21:48.701Z,11.80
2023-09-16T12:24:24.363Z,10.48
2023-09-16T12:26:52.382Z,11.12
2023-09-16T12:29:20.510Z,8.90
2023-09-16T12:31:49.825Z,8.27
2023-09-16T12:34:21.099Z,11.70
2023-09-16T12:36:51.154Z,12.18
2023-09-16T12:39:21.257Z,12.75
2023-09-16T12:42:04.595Z,9.50
2023-09-16T12:44:39.168Z,7.70
2023-09-16T12:47:07.977Z,10.88
2023-09-16T12:49:36.323Z,10.07
2023-09-16T12:52:04.512Z,10.60
2023-09-16T12:57:04.349Z,10.88
2023-09-16T12:59:32.386Z,9.85
2023-09-16T13:02:04.345Z,10.77
2023-09-16T13:04:32.338Z,11.38
2023-09-16T13:07:01.298Z,10.02
2023-09-16T13:09:32.517Z,11.43
2023-09-16T13:12:01.892Z,14.25
2023-09-16T13:14:29.552Z,10.35
2023-09-16T13:16:57.208Z,9.50
2023-09-16T13:19:25.834Z,10.63
2023-09-16T13:21:53.619Z,9.15
2023-09-16T13:24:21.209Z,11.30
2023-09-16T13:26:54.431Z,12.40
2023-09-16T13:29:22.075Z,9.95
2023-09-16T13:32:04.444Z,10.90
2023-09-16T13:34:48.438Z,9.88
2023-09-16T13:37:16.229Z,14.90
2023-09-16T13:39:48.573Z,9.70
2023-09-16T13:42:16.673Z,9.63
2023-09-16T13:44:47.868Z,9.57
2023-09-16T13:47:16.891Z,12.32
2023-09-16T13:49:44.704Z,15.20
2023-09-16T13:52:13.223Z,11.18
2023-09-16T13:54:41.370Z,14.27
2023-09-16T13:57:08.842Z,13.32
2023-09-16T13:59:36.322Z,13.07
2023-09-16T14:02:04.189Z,13.30
2023-09-16T14:04:32.024Z,12.77
2023-09-16T14:06:59.468Z,10.63
2023-09-16T14:09:27.325Z,10.88
2023-09-16T14:11:55.134Z,12.52
2023-09-16T14:14:22.823Z,14.30
2023-09-16T14:16:50.465Z,11.25
2023-09-16T14:19:20.967Z,16.33
2023-09-16T14:21:48.524Z,13.57
2023-09-16T14:24:15.989Z,15.43
2023-09-16T14:26:44.294Z,10.88
2023-09-16T14:29:11.600Z,11.40
2023-09-16T14:31:39.089Z,13.77
2023-09-16T14:34:06.996Z,10.95
2023-09-16T14:36:34.437Z,13.07
2023-09-16T14:39:01.906Z,14.07
2023-09-16T14:41:29.660Z,12.82
2023-09-16T14:43:57.345Z,11.38
2023-09-16T14:46:24.988Z,16.80
2023-09-16T14:48:52.937Z,14.45
2023-09-16T14:51:20.542Z,12.77
2023-09-16T14:53:48.149Z,17.00
2023-09-16T14:56:15.900Z,15.63
2023-09-16T14:58:44.137Z,14.30
2023-09-16T15:01:11.805Z,16.92
2023-09-16T15:03:39.802Z,19.52
2023-09-16T15:06:07.671Z,13.90
2023-09-16T15:08:35.424Z,14.45
2023-09-16T15:11:05.195Z,19.35
2023-09-16T15:13:33.488Z,12.75
2023-09-16T15:16:03.126Z,14.77
2023-09-16T15:18:33.059Z,20.42
2023-09-16T15:21:01.551Z,17.17
2023-09-16T15:23:30.084Z,13.70
2023-09-16T15:25:59.191Z,19.05
2023-09-16T15:28:27.267Z,19.73
2023-09-16T15:30:54.987Z,16.92
2023-09-16T15:33:25.207Z,16.52
2023-09-16T15:35:57.591Z,16.10
2023-09-16T15:38:26.314Z,17.75
2023-09-16T15:41:01.790Z,19.15
2023-09-16T15:43:33.987Z,26.45
2023-09-16T15:46:04.852Z,20.17
2023-09-16T15:48:34.157Z,22.30
2023-09-16T15:51:02.713Z,18.60
2023-09-16T15:53:34.384Z,18.45
2023-09-16T15:56:04.988Z,19.75
2023-09-16T15:58:32.963Z,18.60
2023-09-16T16:01:00.584Z,16.90
2023-09-16T16:03:29.169Z,23.75
2023-09-16T16:05:57.751Z,18.65
2023-09-16T16:08:25.636Z,20.62
2023-09-16T16:10:55.350Z,20.50
2023-09-16T16:13:23.118Z,20.90
2023-09-16T16:15:52.273Z,23.13
2023-09-16T16:18:23.300Z,19.65
2023-09-16T16:20:51.217Z,25.05
2023-09-16T16:23:18.642Z,22.90
2023-09-16T16:25:47.461Z,19.73
2023-09-16T16:28:15.305Z,28.50
2023-09-16T16:30:43.290Z,30.30
2023-09-16T16:33:11.095Z,37.70
2023-09-16T16:35:38.731Z,30.02
2023-09-16T16:38:06.223Z,37.28
2023-09-16T16:40:34.739Z,35.42
2023-09-16T16:43:03.197Z,30.92
2023-09-16T16:45:30.971Z,30.33
2023-09-16T16:47:59.025Z,23.75
2023-09-16T16:50:27.017Z,33.47
2023-09-16T16:52:54.642Z,32.00
2023-09-16T16:55:22.515Z,48.50
2023-09-16T16:57:50.122Z,39.97
2023-09-16T17:00:17.823Z,36.05
2023-09-16T17:02:45.643Z,31.20
2023-09-16T17:05:13.825Z,27.00
2023-09-16T17:07:45.168Z,25.67
2023-09-16T17:12:41.403Z,35.60
2023-09-16T17:15:10.253Z,34.28
2023-09-16T17:17:37.963Z,27.55
2023-09-16T17:20:06.308Z,24.27
2023-09-16T17:22:33.909Z,23.85
2023-09-16T17:25:02.407Z,34.60
2023-09-16T17:27:30.274Z,29.35
2023-09-16T17:29:57.713Z,34.17
2023-09-16T17:32:26.231Z,37.70
2023-09-16T17:34:53.814Z,30.00
2023-09-16T17:37:22.297Z,34.67
2023-09-16T17:42:19.095Z,25.52
2023-09-16T17:44:47.924Z,31.77
2023-09-16T17:47:16.726Z,29.58
2023-09-16T17:49:45.528Z,32.72
2023-09-16T17:52:14.168Z,27.75
2023-09-16T17:54:43.434Z,27.15
2023-09-16T17:57:10.867Z,22.00
2023-09-16T17:59:38.733Z,21.27
2023-09-16T18:02:08.149Z,20.17
2023-09-16T18:04:36.673Z,21.48
2023-09-16T18:07:04.882Z,25.08
2023-09-16T18:09:32.345Z,18.25
2023-09-16T18:12:00.576Z,23.65
2023-09-16T18:14:28.124Z,31.98
2023-09-16T18:16:55.730Z,30.95
2023-09-16T18:19:23.679Z,21.58
2023-09-16T18:21:51.352Z,25.48
2023-09-16T18:24:18.943Z,25.17
2023-09-16T18:26:46.716Z,28.60
2023-09-16T18:29:14.127Z,23.58
2023-09-16T18:31:41.597Z,22.30
2023-09-16T18:34:09.547Z,24.33
2023-09-16T18:36:37.071Z,27.98
2023-09-16T18:39:04.703Z,27.48
2023-09-16T18:41:32.596Z,25.85
2023-09-16T18:44:05.563Z,22.13
2023-09-16T18:46:34.515Z,23.25
2023-09-16T18:49:02.364Z,25.37
2023-09-16T18:51:30.283Z,20.98
2023-09-16T18:53:58.112Z,25.08
2023-09-16T18:56:25.940Z,22.83
2023-09-16T18:58:53.743Z,22.52
2023-09-16T19:01:21.811Z,29.02
2023-09-16T19:03:49.470Z,20.20
2023-09-16T19:06:16.883Z,28.08
2023-09-16T19:08:44.691Z,22.23
2023-09-16T19:11:12.261Z,25.17
2023-09-16T19:13:39.737Z,25.95
2023-09-16T19:16:07.596Z,22.63
2023-09-16T19:18:35.195Z,22.15
2023-09-16T19:21:02.601Z,21.08
2023-09-16T19:23:30.412Z,22.02
2023-09-16T19:25:58.191Z,24.35
2023-09-16T19:28:25.652Z,26.30
2023-09-16T19:30:53.899Z,24.80
2023-09-16T19:33:23.230Z,24.33
2023-09-16T19:35:51.545Z,23.42
2023-09-16T19:38:19.359Z,25.88
2023-09-16T19:40:47.954Z,27.95
2023-09-16T19:43:15.630Z,28.30
2023-09-16T19:45:45.447Z,25.30
2023-09-16T19:48:13.002Z,26.95
2023-09-16T19:50:42.251Z,23.58
2023-09-16T19:53:09.933Z,21.17
2023-09-16T19:55:37.326Z,29.60
2023-09-16T19:58:05.028Z,24.55
2023-09-16T20:00:34.013Z,26.20
2023-09-16T20:03:01.856Z,31.10
2023-09-16T20:05:29.722Z,24.33
2023-09-16T20:07:57.194Z,29.35
2023-09-16T20:10:25.349Z,23.80
2023-09-16T20:12:52.769Z,21.62
2023-09-16T20:15:20.361Z,33.25
2023-09-16T20:17:48.787Z,27.50
2023-09-16T20:20:16.498Z,25.48
2023-09-16T20:22:44.007Z,21.65
2023-09-16T20:25:14.893Z,20.87
2023-09-16T20:27:44.065Z,22.02
2023-09-16T20:30:11.990Z,26.80
2023-09-16T20:32:39.829Z,23.08
2023-09-16T20:35:07.918Z,21.23
2023-09-16T20:37:35.826Z,21.92
2023-09-16T20:40:05.758Z,24.42
2023-09-16T20:42:34.148Z,25.20
2023-09-16T20:45:03.037Z,20.25
2023-09-16T20:47:31.713Z,25.05
2023-09-16T20:49:59.657Z,22.73
2023-09-16T20:52:27.637Z,29.40
2023-09-16T20:54:56.676Z,23.42
2023-09-16T20:57:24.601Z,20.23
2023-09-16T20:59:52.473Z,20.25
2023-09-16T21:02:22.751Z,26.73
2023-09-16T21:04:50.302Z,21.35
2023-09-16T21:07:18.140Z,26.25
2023-09-16T21:09:46.791Z,28.00
2023-09-16T21:12:14.393Z,21.35
2023-09-16T21:14:42.215Z,26.33
2023-09-16T21:17:09.698Z,24.90
2023-09-16T21:19:37.228Z,22.77
2023-09-16T21:22:05.214Z,21.73
2023-09-16T21:24:32.729Z,21.45
2023-09-16T21:27:00.693Z,19.75
2023-09-16T21:29:28.497Z,16.35
2023-09-16T21:32:01.833Z,22.35
2023-09-16T21:34:31.267Z,19.15
2023-09-16T21:37:02.310Z,17.33
2023-09-16T21:39:30.222Z,16.67
2023-09-16T21:42:00.034Z,17.52
2023-09-16T21:44:27.597Z,16.90
2023-09-16T21:46:56.012Z,17.67
2023-09-16T21:49:23.560Z,18.17
2023-09-16T21:51:51.165Z,15.50
2023-09-16T21:54:18.912Z,23.08
2023-09-16T21:56:46.337Z,21.10
2023-09-16T21:59:13.782Z,20.45
2023-09-16T22:01:41.641Z,23.12
2023-09-16T22:04:11.758Z,20.20
2023-09-16T22:06:39.322Z,24.20
2023-09-16T22:09:06.819Z,23.00
2023-09-16T22:11:34.572Z,20.77
2023-09-16T22:14:01.992Z,16.92
2023-09-16T22:16:29.480Z,19.20
2023-09-16T22:18:57.389Z,18.57
2023-09-16T22:21:24.826Z,16.80
2023-09-16T22:23:52.422Z,18.83
2023-09-16T22:26:20.227Z,19.05
2023-09-16T22:28:47.722Z,12.23
2023-09-16T22:31:17.010Z,15.13
2023-09-16T22:33:44.926Z,19.55
2023-09-16T22:36:12.339Z,19.62
2023-09-16T22:38:39.748Z,16.73
2023-09-16T22:41:07.678Z,14.65
2023-09-16T22:43:35.102Z,14.48
2023-09-16T22:46:02.611Z,15.20
2023-09-16T22:48:30.405Z,13.77
2023-09-16T22:50:57.950Z,11.57
2023-09-16T22:53:25.604Z,17.12
2023-09-16T22:55:53.324Z,16.70
2023-09-16T22:58:20.809Z,15.20
2023-09-16T23:00:48.331Z,14.43
2023-09-16T23:03:16.190Z,18.03
2023-09-16T23:05:43.673Z,20.60
2023-09-16T23:08:11.079Z,16.73
2023-09-16T23:10:39.314Z,20.77
2023-09-16T23:13:06.726Z,20.20
2023-09-16T23:15:34.107Z,16.05
2023-09-16T23:18:01.831Z,10.48
2023-09-16T23:20:29.212Z,13.62
2023-09-16T23:22:57.167Z,12.68
2023-09-16T23:25:24.801Z,14.38
2023-09-16T23:27:52.153Z,17.40
2023-09-16T23:30:19.468Z,12.43
2023-09-16T23:32:47.375Z,12.93
2023-09-16T23:35:14.719Z,11.30
2023-09-16T23:37:42.015Z,12.80
2023-09-16T23:40:10.317Z,8.70
2023-09-16T23:42:37.643Z,12.90
2023-09-16T23:45:05.809Z,9.13
2023-09-16T23:47:33.494Z,10.18
2023-09-16T23:50:00.731Z,10.27
2023-09-16T23:52:28.215Z,11.15
2023-09-16T23:54:56.029Z,9.33
2023-09-16T23:57:23.287Z,12.15
2023-09-16T23:59:50.694Z,16.48
